createdAt,value
2019-03-31T00:01:21.912Z,40.10
2019-03-31T00:05:27.670Z,43.10
2019-03-31T00:09:33.395Z,40.40
2019-03-31T00:13:41.715Z,40.70
2019-03-31T00:17:47.436Z,40.50
2019-03-31T00:21:53.143Z,41.30
2019-03-31T00:25:58.851Z,42.40
2019-03-31T00:30:05.353Z,42.00
2019-03-31T00:34:23.754Z,44.40
2019-03-31T00:38:29.461Z,41.30
2019-03-31T00:42:35.159Z,39.60
2019-03-31T00:46:40.954Z,42.00
2019-03-31T00:50:46.734Z,43.40
2019-03-31T00:54:52.417Z,42.00
2019-03-31T00:58:58.264Z,42.20
2019-03-31T01:03:04.345Z,42.00
2019-03-31T01:07:11.409Z,43.90
2019-03-31T01:11:21.037Z,44.70
2019-03-31T01:15:27.094Z,43.20
2019-03-31T01:19:33.032Z,45.20
2019-03-31T01:23:38.776Z,45.40
2019-03-31T01:27:46.211Z,45.60
2019-03-31T01:31:53.207Z,45.20
2019-03-31T01:35:58.961Z,45.70
2019-03-31T01:40:06.770Z,45.50
2019-03-31T01:44:12.769Z,46.00
2019-03-31T01:48:18.543Z,45.30
2019-03-31T01:52:24.229Z,44.60
2019-03-31T01:56:31.575Z,45.80
2019-03-31T02:00:38.984Z,47.70
2019-03-31T02:04:44.687Z,45.30
2019-03-31T02:08:50.380Z,46.60
2019-03-31T02:12:56.061Z,46.00
2019-03-31T02:17:01.934Z,45.10
2019-03-31T02:21:07.707Z,45.80
2019-03-31T02:25:13.507Z,48.70
2019-03-31T02:29:19.202Z,48.50
2019-03-31T02:33:24.895Z,48.20
2019-03-31T02:37:30.596Z,45.90
2019-03-31T02:41:36.373Z,47.00
2019-03-31T02:45:42.072Z,49.30
2019-03-31T02:49:47.921Z,50.70
2019-03-31T02:53:53.667Z,48.60
2019-03-31T02:58:00.803Z,48.00
2019-03-31T03:02:06.842Z,49.40
2019-03-31T03:06:15.661Z,50.20
2019-03-31T03:10:24.135Z,50.60
2019-03-31T03:14:34.430Z,50.80
2019-03-31T03:18:41.214Z,47.50
2019-03-31T03:22:46.907Z,49.10
2019-03-31T03:26:52.625Z,50.40
2019-03-31T03:30:58.486Z,50.70
2019-03-31T03:35:05.047Z,46.70
2019-03-31T03:39:10.755Z,47.30
2019-03-31T03:43:16.510Z,49.80
2019-03-31T03:47:22.212Z,51.10
2019-03-31T03:51:28.407Z,48.40
2019-03-31T03:55:34.079Z,48.80
2019-03-31T03:59:39.780Z,51.30
2019-03-31T04:03:45.598Z,53.20
2019-03-31T04:07:51.298Z,51.90
2019-03-31T04:11:57.006Z,49.00
2019-03-31T04:16:02.701Z,49.50
2019-03-31T04:20:08.613Z,52.80
2019-03-31T04:24:14.304Z,53.50
2019-03-31T04:28:20.162Z,52.30
2019-03-31T04:32:25.865Z,53.60
2019-03-31T04:36:31.548Z,53.70
2019-03-31T04:40:37.257Z,51.40
2019-03-31T04:44:42.970Z,52.40
2019-03-31T04:48:48.736Z,49.20
2019-03-31T04:52:54.434Z,48.70
2019-03-31T04:57:00.124Z,49.40
2019-03-31T05:01:05.934Z,52.00
2019-03-31T05:05:11.633Z,53.00
2019-03-31T05:09:17.321Z,55.30
2019-03-31T05:13:23.016Z,53.50
2019-03-31T05:17:28.767Z,53.20
2019-03-31T05:21:34.513Z,55.70
2019-03-31T05:25:40.207Z,55.00
2019-03-31T05:29:45.898Z,54.40
2019-03-31T05:33:51.600Z,55.10
2019-03-31T05:37:57.281Z,56.20
2019-03-31T05:42:02.982Z,53.50
2019-03-31T05:46:08.734Z,54.50
2019-03-31T05:50:14.528Z,53.00
2019-03-31T05:54:20.231Z,54.80
2019-03-31T05:58:25.950Z,55.70
2019-03-31T06:02:31.706Z,53.80
2019-03-31T06:06:37.401Z,54.90
2019-03-31T06:10:43.112Z,51.20
2019-03-31T06:14:48.805Z,47.30
2019-03-31T06:18:54.500Z,45.70
2019-03-31T06:23:00.220Z,46.20
2019-03-31T06:27:05.934Z,47.50
2019-03-31T06:36:17.124Z,45.00
2019-03-31T06:40:22.890Z,43.00
2019-03-31T06:44:28.586Z,42.40
2019-03-31T06:48:34.301Z,47.90
2019-03-31T06:52:40.101Z,46.20
2019-03-31T06:56:47.263Z,44.60
2019-03-31T07:00:53.963Z,43.10
2019-03-31T07:05:01.058Z,40.80
2019-03-31T07:09:08.215Z,40.50
2019-03-31T07:13:13.990Z,39.10
2019-03-31T07:17:19.677Z,40.00
2019-03-31T07:21:25.385Z,38.70
2019-03-31T07:25:31.082Z,38.60
2019-03-31T07:29:36.795Z,37.20
2019-03-31T07:33:42.496Z,36.80
2019-03-31T07:37:48.209Z,39.20
2019-03-31T07:41:54.022Z,36.30
2019-03-31T07:45:59.798Z,37.50
2019-03-31T07:50:11.511Z,35.50
2019-03-31T07:54:17.212Z,37.00
2019-03-31T07:58:22.957Z,35.10
2019-03-31T08:02:28.707Z,34.30
2019-03-31T08:06:34.421Z,33.10
2019-03-31T08:10:40.128Z,32.90
2019-03-31T08:14:48.696Z,33.60
2019-03-31T08:18:54.390Z,34.20
2019-03-31T08:23:00.213Z,32.40
2019-03-31T08:27:05.950Z,30.90
2019-03-31T08:31:11.697Z,31.00
2019-03-31T08:35:17.867Z,30.70
2019-03-31T08:39:23.557Z,31.30
2019-03-31T08:43:29.313Z,30.20
2019-03-31T08:47:35.013Z,30.00
2019-03-31T08:51:41.801Z,28.00
2019-03-31T08:55:47.523Z,27.80
2019-03-31T08:59:53.195Z,27.40
2019-03-31T09:03:59.065Z,26.90
2019-03-31T09:08:04.820Z,26.60
2019-03-31T09:12:10.610Z,27.20
2019-03-31T09:16:16.319Z,26.70
2019-03-31T09:20:22.329Z,26.50
2019-03-31T09:24:28.041Z,25.50
2019-03-31T09:28:34.832Z,25.20
2019-03-31T09:32:40.748Z,24.40
2019-03-31T09:36:46.499Z,24.30
2019-03-31T09:40:52.236Z,23.30
2019-03-31T09:44:57.976Z,22.10
2019-03-31T09:49:04.038Z,22.00
2019-03-31T09:53:09.746Z,22.00
2019-03-31T09:57:15.457Z,23.30
2019-03-31T10:01:21.228Z,21.80
2019-03-31T10:05:26.931Z,22.60
2019-03-31T10:09:33.341Z,22.20
2019-03-31T10:13:39.067Z,21.70
2019-03-31T10:17:44.804Z,22.90
2019-03-31T10:21:50.556Z,20.60
2019-03-31T10:25:56.267Z,20.50
2019-03-31T10:30:02.031Z,20.50
2019-03-31T10:34:07.921Z,19.50
2019-03-31T10:38:13.661Z,19.50
2019-03-31T10:42:20.931Z,19.00
2019-03-31T10:46:26.792Z,18.60
2019-03-31T10:50:32.566Z,19.10
2019-03-31T10:54:38.261Z,19.10
2019-03-31T10:58:43.947Z,18.80
2019-03-31T11:02:49.691Z,18.80
2019-03-31T11:06:59.518Z,18.70
2019-03-31T11:11:02.875Z,17.80
2019-03-31T11:15:09.094Z,17.60
2019-03-31T11:19:14.783Z,16.90
2019-03-31T11:23:22.115Z,16.80
2019-03-31T11:27:27.827Z,17.30
2019-03-31T11:31:33.565Z,18.00
2019-03-31T11:35:39.272Z,16.80
2019-03-31T11:39:45.342Z,18.10
2019-03-31T11:43:51.062Z,17.20
2019-03-31T11:47:56.850Z,17.20
2019-03-31T11:52:02.553Z,18.00
2019-03-31T11:56:08.250Z,17.00
2019-03-31T12:00:25.128Z,18.50
2019-03-31T12:04:31.782Z,16.90
2019-03-31T12:08:37.496Z,15.80
2019-03-31T12:12:43.334Z,16.00
2019-03-31T12:16:49.053Z,16.70
2019-03-31T12:20:55.729Z,18.50
2019-03-31T12:25:01.406Z,19.30
2019-03-31T12:29:07.096Z,19.80
2019-03-31T12:33:13.838Z,21.90
2019-03-31T12:37:19.541Z,20.90
2019-03-31T12:41:25.229Z,19.90
2019-03-31T12:45:31.006Z,19.10
2019-03-31T12:49:36.702Z,18.00
2019-03-31T12:53:42.403Z,18.80
2019-03-31T12:57:51.517Z,19.20
2019-03-31T13:01:55.587Z,19.10
2019-03-31T13:06:01.478Z,20.30
2019-03-31T13:10:07.752Z,20.00
2019-03-31T13:14:13.458Z,20.40
2019-03-31T13:18:19.212Z,18.90
2019-03-31T13:22:24.925Z,19.80
2019-03-31T13:26:30.625Z,18.60
2019-03-31T13:30:36.497Z,18.00
2019-03-31T13:34:42.199Z,18.40
2019-03-31T13:38:47.894Z,19.60
2019-03-31T13:42:53.617Z,19.70
2019-03-31T13:46:59.389Z,18.70
2019-03-31T13:51:05.175Z,20.00
2019-03-31T13:55:16.626Z,18.90
2019-03-31T13:59:22.330Z,18.10
2019-03-31T14:04:15.906Z,18.70
2019-03-31T14:08:26.089Z,19.40
2019-03-31T14:13:17.280Z,18.40
2019-03-31T14:17:24.602Z,18.30
2019-03-31T14:22:15.026Z,20.60
2019-03-31T14:26:20.743Z,18.80
2019-03-31T14:30:26.542Z,18.10
2019-03-31T14:34:32.248Z,19.40
2019-03-31T14:38:40.248Z,17.90
2019-03-31T14:43:18.568Z,17.90
2019-03-31T14:47:24.334Z,19.70
2019-03-31T14:51:30.038Z,20.90
2019-03-31T14:55:35.997Z,19.00
2019-03-31T14:59:41.797Z,20.90
2019-03-31T15:04:18.034Z,21.00
2019-03-31T15:08:23.726Z,19.90
2019-03-31T15:12:29.403Z,20.00
2019-03-31T15:16:35.126Z,22.20
2019-03-31T15:20:40.826Z,23.50
2019-03-31T15:24:46.518Z,21.90
2019-03-31T15:28:52.361Z,22.30
2019-03-31T15:32:58.085Z,22.80
2019-03-31T15:37:03.775Z,22.70
2019-03-31T15:41:21.362Z,24.30
2019-03-31T15:45:25.648Z,23.90
2019-03-31T15:49:31.394Z,23.30
2019-03-31T15:53:37.108Z,23.10
2019-03-31T15:57:44.554Z,22.20
2019-03-31T16:01:50.258Z,24.40
2019-03-31T16:05:55.975Z,23.40
2019-03-31T16:10:01.728Z,22.90
2019-03-31T16:14:17.801Z,23.20
2019-03-31T16:18:23.516Z,22.50
2019-03-31T16:22:29.204Z,24.60
2019-03-31T16:26:34.924Z,22.80
2019-03-31T16:30:40.696Z,23.30
2019-03-31T16:34:46.421Z,25.40
2019-03-31T16:38:52.128Z,25.40
2019-03-31T16:42:57.834Z,26.40
2019-03-31T16:47:03.561Z,26.90
2019-03-31T16:51:09.403Z,27.30
2019-03-31T16:55:15.346Z,28.30
2019-03-31T16:59:21.130Z,25.70
2019-03-31T17:03:26.820Z,26.70
2019-03-31T17:07:32.540Z,25.90
2019-03-31T17:11:38.284Z,26.30
2019-03-31T17:15:44.176Z,27.00
2019-03-31T17:19:49.885Z,26.50
2019-03-31T17:23:55.649Z,27.10
2019-03-31T17:28:01.422Z,27.90
2019-03-31T17:33:06.162Z,36.60
2019-03-31T17:37:12.553Z,35.80
2019-03-31T17:41:18.268Z,34.30
2019-03-31T17:45:23.978Z,33.90
2019-03-31T17:49:29.719Z,33.90
2019-03-31T17:53:35.410Z,33.30
2019-03-31T17:57:42.501Z,33.50
2019-03-31T18:01:48.777Z,33.60
2019-03-31T18:05:54.497Z,33.80
2019-03-31T18:10:00.389Z,33.80
2019-03-31T18:15:14.693Z,30.10
2019-03-31T18:19:20.370Z,33.80
2019-03-31T18:24:17.023Z,33.50
2019-03-31T18:28:22.795Z,34.20
2019-03-31T18:32:28.504Z,34.70
2019-03-31T18:36:52.075Z,32.10
2019-03-31T18:40:57.876Z,35.40
2019-03-31T18:45:18.847Z,35.20
2019-03-31T18:49:24.623Z,35.70
2019-03-31T18:54:15.021Z,35.70
2019-03-31T18:58:26.011Z,36.50
2019-03-31T19:02:34.583Z,36.90
2019-03-31T19:06:40.085Z,37.20
2019-03-31T19:11:15.555Z,34.50
2019-03-31T19:15:34.843Z,36.40
2019-03-31T19:19:50.796Z,36.40
2019-03-31T19:24:19.321Z,36.30
2019-03-31T19:28:29.406Z,36.60
2019-03-31T19:33:28.774Z,36.50
2019-03-31T19:37:36.287Z,36.40
2019-03-31T19:42:36.508Z,37.00
2019-03-31T19:47:16.621Z,30.10
2019-03-31T19:51:35.536Z,35.80
2019-03-31T19:55:42.108Z,37.50
2019-03-31T20:00:19.494Z,37.00
2019-03-31T20:04:26.917Z,37.90
2019-03-31T20:08:34.251Z,37.30
2019-03-31T20:13:15.688Z,33.60
2019-03-31T20:17:28.575Z,37.60
2019-03-31T20:21:50.713Z,39.20
2019-03-31T20:26:18.939Z,36.80
2019-03-31T20:30:44.164Z,39.40
2019-03-31T20:35:16.136Z,37.60
2019-03-31T20:39:23.461Z,39.20
2019-03-31T20:43:31.882Z,36.60
2019-03-31T20:47:37.585Z,38.50
2019-03-31T20:51:44.308Z,39.40
2019-03-31T20:55:49.968Z,38.40
2019-03-31T21:00:19.613Z,34.50
2019-03-31T21:04:25.479Z,33.30
2019-03-31T21:08:31.173Z,38.80
2019-03-31T21:12:36.917Z,39.70
2019-03-31T21:16:42.656Z,39.20
2019-03-31T21:21:15.246Z,38.30
2019-03-31T21:25:20.972Z,38.90
2019-03-31T21:29:26.691Z,38.60
2019-03-31T21:33:32.426Z,38.00
2019-03-31T21:37:38.197Z,40.30
2019-03-31T21:41:43.892Z,36.00
2019-03-31T21:46:16.633Z,36.50
2019-03-31T21:50:22.882Z,37.60
2019-03-31T21:54:28.608Z,39.70
2019-03-31T21:58:34.323Z,39.70
2019-03-31T22:02:40.225Z,40.30
2019-03-31T22:06:46.012Z,39.30
2019-03-31T22:10:51.724Z,39.10
2019-03-31T22:15:18.477Z,40.00
2019-03-31T22:19:24.174Z,36.30
2019-03-31T22:23:31.502Z,39.70
2019-03-31T23:15:15.184Z,41.00
2019-03-31T23:24:30.693Z,40.80
2019-03-31T23:28:38.023Z,39.60
2019-03-31T23:32:43.746Z,42.00
2019-03-31T23:36:49.452Z,40.10
2019-03-31T23:40:55.165Z,41.20
2019-03-31T23:45:00.909Z,41.60
2019-03-31T23:49:06.656Z,41.60
2019-03-31T23:53:12.377Z,42.80
2019-03-31T23:57:18.068Z,44.50
